Bookmark and Share
Track history (hours):
 

Universal Bremen

Last reported at 2014-Apr-16 00:03 UTC. Time now 2014-Apr-24 09:29 UTC.
Position N 06°48' W 019°48'.
Warning: this ship's position is 8 days out of date.

Length 189 m; draft 6.3 m.

Type: Cargo ship. MMSI: 253466000.

NotesDate/timePositionNaut miles runAvg speedWind from/ knotsBaromVisibWave heightAir tempDewpointWater temp
2014-Apr-16 00:03N 06°48' W 019°48'712.4
2014-Apr-15 23:30N 06°49' W 019°41'1212.4
2014-Apr-15 22:32N 06°52' W 019°29'1212.2
2014-Apr-15 21:33N 06°55' W 019°18'1312.5
2014-Apr-15 20:33N 06°59' W 019°06'1212.4
2014-Apr-15 19:33N 07°02' W 018°53'1212.3
2014-Apr-15 18:33N 07°05' W 018°41'1612.3
2014-Apr-15 17:14N 07°09' W 018°26'1211.9
2014-Apr-15 16:14N 07°12' W 018°14'912.2
2014-Apr-15 15:32N 07°14' W 018°06'8510.7
2014-Apr-15 07:34N 07°35' W 016°42'7312.1
2014-Apr-15 01:34N 07°54' W 015°31'1212.2
2014-Apr-15 00:34N 07°57' W 015°19'4812.1
2014-Apr-14 20:33N 08°09' W 014°32'2412.2
2014-Apr-14 18:34N 08°15' W 014°08'1110.6
2014-Apr-14 17:33N 08°18' W 013°58'14 4.7
2014-Apr-14 14:33N 08°21' W 013°44'0 0.1
2014-Apr-14 13:33N 08°21' W 013°44'2 0.1
2014-Apr-13 19:33N 08°22' W 013°42'1212.3
2014-Apr-13 18:33N 08°25' W 013°30'1211.9
2014-Apr-13 17:33N 08°30' W 013°19'7 6.5
2014-Apr-13 16:32N 08°30' W 013°13'0 0.0
2014-Apr-13 08:09N 08°30' W 013°13'0 0.0
2014-Apr-13 06:15N 08°30' W 013°13'0 0.0
2014-Apr-13 05:33N 08°30' W 013°13'0 0.0
2014-Apr-13 01:33N 08°30' W 013°13'0 0.0
2014-Apr-13 00:06N 08°30' W 013°13'0 0.0
2014-Apr-12 08:33N 08°30' W 013°13'0 0.0
2014-Apr-12 07:06N 08°30' W 013°13'0 0.0
2014-Apr-11 21:30N 08°30' W 013°13'0 0.0
2014-Apr-11 18:33N 08°30' W 013°13'0 0.0
2014-Apr-11 17:24N 08°30' W 013°13'0 0.0
2014-Apr-11 16:24N 08°30' W 013°13'0 0.0
2014-Apr-11 15:33N 08°30' W 013°13'0 0.0
2014-Apr-11 11:21N 08°30' W 013°13'0 0.0
2014-Apr-11 04:09N 08°30' W 013°13'0 0.0
2014-Apr-11 02:18N 08°30' W 013°13'0 0.0
2014-Apr-11 01:33N 08°30' W 013°13'  
2014-Apr-08 13:20N 08°30' W 013°13'  

Dump ship's entire track history

sailing weather and tide predictions

Universal Bremen — LXEM — position and weather